createdAt,value
2022-12-19T00:00:19.748Z,96391.00
2022-12-19T00:04:22.565Z,96376.00
2022-12-19T00:08:26.748Z,96372.00
2022-12-19T00:12:29.524Z,96350.00
2022-12-19T00:16:32.446Z,96347.00
2022-12-19T00:20:35.549Z,96368.00
2022-12-19T00:24:39.684Z,96352.00
2022-12-19T00:28:44.018Z,96375.00
2022-12-19T00:32:47.662Z,96405.00
2022-12-19T00:36:50.491Z,96397.00
2022-12-19T00:40:54.807Z,96382.00
2022-12-19T00:44:57.841Z,96364.00
2022-12-19T00:49:04.081Z,96361.00
2022-12-19T00:53:06.844Z,96369.00
2022-12-19T00:57:11.432Z,96358.00
2022-12-19T01:01:19.296Z,96338.00
2022-12-19T01:05:22.204Z,96327.00
2022-12-19T01:09:25.141Z,96327.00
2022-12-19T01:13:32.353Z,96341.00
2022-12-19T01:17:43.503Z,96346.00
2022-12-19T01:21:48.090Z,96362.00
2022-12-19T01:25:55.780Z,96383.00
2022-12-19T01:30:00.017Z,96392.00
2022-12-19T01:34:02.817Z,96392.00
2022-12-19T01:38:08.564Z,96386.00
2022-12-19T01:42:15.720Z,96394.00
2022-12-19T01:46:23.904Z,96383.00
2022-12-19T01:50:35.797Z,96396.00
2022-12-19T01:54:40.987Z,96387.00
2022-12-19T01:58:46.447Z,96397.00
2022-12-19T02:02:58.056Z,96402.00
2022-12-19T02:07:04.737Z,96406.00
2022-12-19T02:11:17.748Z,96396.00
2022-12-19T02:15:21.913Z,96404.00
2022-12-19T02:19:57.042Z,96412.00
2022-12-19T02:24:48.246Z,96421.00
2022-12-19T02:29:14.592Z,96395.00
2022-12-19T02:33:26.547Z,96414.00
2022-12-19T02:37:31.888Z,96422.00
2022-12-19T02:41:46.129Z,96408.00
2022-12-19T02:45:56.881Z,96407.00
2022-12-19T02:50:04.446Z,96421.00
2022-12-19T02:54:08.630Z,96421.00
2022-12-19T02:58:30.787Z,96421.00
2022-12-19T03:02:47.094Z,96435.00
2022-12-19T03:07:04.950Z,96428.00
2022-12-19T03:11:13.326Z,96423.00
2022-12-19T03:15:21.054Z,96433.00
2022-12-19T03:19:25.045Z,96436.00
2022-12-19T03:23:30.512Z,96429.00
2022-12-19T03:27:38.503Z,96422.00
2022-12-19T03:31:43.311Z,96448.00
2022-12-19T03:35:53.814Z,96445.00
2022-12-19T03:40:01.946Z,96423.00
2022-12-19T03:44:06.292Z,96401.00
2022-12-19T03:48:15.834Z,96389.00
2022-12-19T03:52:27.520Z,96362.00
2022-12-19T03:56:38.437Z,96392.00
2022-12-19T04:00:47.236Z,96437.00
2022-12-19T04:04:53.469Z,96436.00
2022-12-19T04:08:57.822Z,96472.00
2022-12-19T04:13:05.856Z,96458.00
2022-12-19T04:17:17.881Z,96469.00
2022-12-19T04:21:26.079Z,96467.00
2022-12-19T04:25:33.066Z,96446.00
2022-12-19T04:29:38.896Z,96425.00
2022-12-19T04:33:41.534Z,96410.00
2022-12-19T04:37:44.636Z,96441.00
2022-12-19T04:41:47.432Z,96423.00
2022-12-19T04:45:56.986Z,96428.00
2022-12-19T04:50:00.272Z,96436.00
2022-12-19T04:54:03.074Z,96407.00
2022-12-19T04:58:06.261Z,96430.00
2022-12-19T05:02:10.524Z,96417.00
2022-12-19T05:06:15.358Z,96415.00
2022-12-19T05:10:18.227Z,96416.00
2022-12-19T05:14:21.128Z,96427.00
2022-12-19T05:18:25.472Z,96430.00
2022-12-19T05:22:28.334Z,96458.00
2022-12-19T05:26:31.196Z,96450.00
2022-12-19T05:30:33.958Z,96442.00
2022-12-19T05:34:38.166Z,96459.00
2022-12-19T05:38:40.982Z,96449.00
2022-12-19T05:42:43.778Z,96454.00
2022-12-19T05:46:46.738Z,96443.00
2022-12-19T05:50:51.582Z,96442.00
2022-12-19T05:54:54.465Z,96434.00
2022-12-19T05:58:57.395Z,96428.00
2022-12-19T06:03:00.329Z,96439.00
2022-12-19T06:07:05.443Z,96448.00
2022-12-19T06:11:09.559Z,96438.00
2022-12-19T06:15:13.511Z,96435.00
2022-12-19T06:19:16.328Z,96439.00
2022-12-19T06:23:20.698Z,96438.00
2022-12-19T06:27:23.550Z,96446.00
2022-12-19T06:31:26.724Z,96441.00
2022-12-19T06:35:29.551Z,96448.00
2022-12-19T06:39:33.650Z,96454.00
2022-12-19T06:43:36.447Z,96450.00
2022-12-19T06:47:39.267Z,96433.00
2022-12-19T06:51:42.048Z,96437.00
2022-12-19T06:55:46.160Z,96445.00
2022-12-19T06:59:48.934Z,96441.00
2022-12-19T07:03:51.942Z,96448.00
2022-12-19T07:07:54.722Z,96445.00
2022-12-19T07:11:59.169Z,96436.00
2022-12-19T07:16:04.798Z,96456.00
2022-12-19T07:20:08.682Z,96456.00
2022-12-19T07:24:12.749Z,96458.00
2022-12-19T07:28:17.588Z,96473.00
2022-12-19T07:32:20.333Z,96472.00
2022-12-19T07:36:23.109Z,96461.00
2022-12-19T07:40:25.818Z,96465.00
2022-12-19T07:44:29.902Z,96464.00
2022-12-19T07:48:32.647Z,96468.00
2022-12-19T07:52:35.376Z,96485.00
2022-12-19T07:56:38.164Z,96474.00
2022-12-19T08:00:42.634Z,96475.00
2022-12-19T08:04:45.461Z,96470.00
2022-12-19T08:08:48.241Z,96457.00
2022-12-19T08:12:51.338Z,96466.00
2022-12-19T08:17:19.698Z,96447.00
2022-12-19T08:21:18.224Z,96448.00
2022-12-19T08:25:21.034Z,96433.00
2022-12-19T08:29:24.126Z,96434.00
2022-12-19T08:33:28.664Z,96460.00
2022-12-19T08:37:31.470Z,96479.00
2022-12-19T08:41:34.276Z,96466.00
2022-12-19T08:45:37.128Z,96446.00
2022-12-19T08:49:41.305Z,96446.00
2022-12-19T08:53:46.171Z,96429.00
2022-12-19T08:57:48.934Z,96427.00
2022-12-19T09:01:52.149Z,96427.00
2022-12-19T09:06:07.055Z,96428.00
2022-12-19T09:10:13.280Z,96441.00
2022-12-19T09:14:21.178Z,96438.00
2022-12-19T09:18:24.415Z,96454.00
2022-12-19T09:22:29.571Z,96437.00
2022-12-19T09:26:32.945Z,96447.00
2022-12-19T09:30:36.794Z,96454.00
2022-12-19T09:34:39.824Z,96454.00
2022-12-19T09:38:44.479Z,96462.00
2022-12-19T09:43:08.788Z,96452.00
2022-12-19T09:47:14.460Z,96459.00
2022-12-19T09:51:30.454Z,96460.00
2022-12-19T09:55:36.697Z,96454.00
2022-12-19T09:59:49.725Z,96447.00
2022-12-19T10:04:02.350Z,96447.00
2022-12-19T10:08:18.033Z,96444.00
2022-12-19T10:12:52.275Z,96439.00
2022-12-19T10:17:24.121Z,96465.00
2022-12-19T10:22:15.859Z,96452.00
2022-12-19T10:26:01.270Z,96435.00
2022-12-19T10:30:14.452Z,96416.00
2022-12-19T10:34:20.715Z,96409.00
2022-12-19T10:38:28.299Z,96413.00
2022-12-19T10:42:41.738Z,96393.00
2022-12-19T10:46:47.396Z,96397.00
2022-12-19T10:50:50.552Z,96389.00
2022-12-19T10:54:53.321Z,96389.00
2022-12-19T10:58:58.882Z,96383.00
2022-12-19T11:03:20.386Z,96381.00
2022-12-19T11:07:23.378Z,96383.00
2022-12-19T11:13:19.422Z,96394.00
2022-12-19T11:18:24.913Z,96400.00
2022-12-19T11:29:24.991Z,96397.00
2022-12-19T11:30:35.208Z,96372.00
2022-12-19T11:31:52.977Z,96376.00
2022-12-19T11:33:47.013Z,96377.00
2022-12-19T11:37:56.029Z,96390.00
2022-12-19T11:42:04.130Z,96376.00
2022-12-19T11:46:17.663Z,96386.00
2022-12-19T11:50:27.657Z,96383.00
2022-12-19T11:54:33.633Z,96385.00
2022-12-19T11:58:36.441Z,96376.00
2022-12-19T12:03:05.771Z,96372.00
2022-12-19T12:07:14.442Z,96375.00
2022-12-19T12:17:16.960Z,96360.00
2022-12-19T12:30:59.574Z,96359.00
2022-12-19T12:31:04.639Z,96361.00
2022-12-19T12:31:38.594Z,96365.00
2022-12-19T12:31:50.628Z,96365.00
2022-12-19T12:35:52.365Z,96382.00
2022-12-19T12:39:05.627Z,96360.00
2022-12-19T12:43:24.537Z,96348.00
2022-12-19T12:47:28.995Z,96340.00
2022-12-19T12:51:33.849Z,96340.00
2022-12-19T12:55:41.281Z,96330.00
2022-12-19T12:59:46.745Z,96337.00
2022-12-19T13:03:57.424Z,96346.00
2022-12-19T13:08:00.312Z,96334.00
2022-12-19T13:12:30.400Z,96357.00
2022-12-19T13:16:53.490Z,96343.00
2022-12-19T13:20:58.830Z,96332.00
2022-12-19T13:25:02.020Z,96319.00
2022-12-19T13:29:26.797Z,96315.00
2022-12-19T13:33:47.018Z,96300.00
2022-12-19T13:39:54.296Z,96309.00
2022-12-19T13:42:42.267Z,96303.00
2022-12-19T13:46:46.846Z,96309.00
2022-12-19T13:50:50.551Z,96314.00
2022-12-19T13:54:58.693Z,96314.00
2022-12-19T13:59:04.871Z,96324.00
2022-12-19T14:03:16.395Z,96334.00
2022-12-19T14:07:36.760Z,96330.00
2022-12-19T14:12:29.758Z,96345.00
2022-12-19T14:16:08.090Z,96350.00
2022-12-19T14:22:07.369Z,96341.00
2022-12-19T14:24:42.707Z,96343.00
2022-12-19T14:28:54.949Z,96353.00
2022-12-19T14:33:40.719Z,96357.00
2022-12-19T14:37:31.473Z,96346.00
2022-12-19T14:42:13.978Z,96337.00
2022-12-19T14:54:10.928Z,96346.00
2022-12-19T14:54:11.033Z,96349.00
2022-12-19T14:56:17.751Z,96319.00
2022-12-19T14:59:58.164Z,96327.00
2022-12-19T15:04:52.641Z,96322.00
2022-12-19T15:11:00.470Z,96315.00
2022-12-19T15:14:48.362Z,96321.00
2022-12-19T15:17:47.133Z,96319.00
2022-12-19T15:21:51.999Z,96326.00
2022-12-19T15:26:05.776Z,96329.00
2022-12-19T15:30:17.890Z,96324.00
2022-12-19T15:34:36.213Z,96301.00
2022-12-19T15:38:45.863Z,96304.00
2022-12-19T15:42:54.999Z,96310.00
2022-12-19T15:46:57.947Z,96309.00
2022-12-19T15:51:00.783Z,96311.00
2022-12-19T15:55:05.610Z,96320.00
2022-12-19T15:59:23.369Z,96309.00
2022-12-19T16:03:27.287Z,96320.00
2022-12-19T16:07:30.405Z,96315.00
2022-12-19T16:11:34.634Z,96317.00
2022-12-19T16:15:39.531Z,96323.00
2022-12-19T16:19:42.400Z,96327.00
2022-12-19T16:23:45.234Z,96326.00
2022-12-19T16:27:55.035Z,96332.00
2022-12-19T16:31:58.201Z,96331.00
2022-12-19T16:36:06.021Z,96339.00
2022-12-19T16:40:15.071Z,96341.00
2022-12-19T16:44:20.649Z,96356.00
2022-12-19T16:48:26.426Z,96344.00
2022-12-19T16:52:29.336Z,96338.00
2022-12-19T16:56:35.460Z,96325.00
2022-12-19T17:00:39.648Z,96340.00
2022-12-19T17:04:42.823Z,96335.00
2022-12-19T17:08:46.390Z,96325.00
2022-12-19T17:12:50.167Z,96320.00
2022-12-19T17:16:55.857Z,96308.00
2022-12-19T17:20:58.998Z,96311.00
2022-12-19T17:25:02.001Z,96303.00
2022-12-19T17:29:04.895Z,96308.00
2022-12-19T17:33:13.083Z,96308.00
2022-12-19T17:37:22.181Z,96304.00
2022-12-19T17:41:25.467Z,96305.00
2022-12-19T17:45:30.575Z,96301.00
2022-12-19T17:49:34.975Z,96303.00
2022-12-19T17:53:37.839Z,96304.00
2022-12-19T17:57:40.676Z,96302.00
2022-12-19T18:01:46.545Z,96299.00
2022-12-19T18:05:52.542Z,96306.00
2022-12-19T18:09:55.336Z,96297.00
2022-12-19T18:13:58.358Z,96297.00
2022-12-19T18:18:01.220Z,96300.00
2022-12-19T18:22:05.456Z,96287.00
2022-12-19T18:26:08.296Z,96293.00
2022-12-19T18:30:14.617Z,96298.00
2022-12-19T18:34:20.266Z,96285.00
2022-12-19T18:38:24.961Z,96265.00
2022-12-19T18:42:27.739Z,96254.00
2022-12-19T18:46:31.706Z,96253.00
2022-12-19T18:50:34.878Z,96258.00
2022-12-19T18:54:38.996Z,96261.00
2022-12-19T18:58:42.380Z,96260.00
2022-12-19T19:02:48.237Z,96247.00
2022-12-19T19:06:53.625Z,96249.00
2022-12-19T19:10:58.124Z,96250.00
2022-12-19T19:15:00.969Z,96265.00
2022-12-19T19:19:06.870Z,96266.00
2022-12-19T19:23:12.359Z,96263.00
2022-12-19T19:27:16.607Z,96252.00
2022-12-19T19:31:23.234Z,96250.00
2022-12-19T19:35:27.234Z,96244.00
2022-12-19T19:39:33.875Z,96242.00
2022-12-19T19:43:38.072Z,96223.00
2022-12-19T19:47:42.435Z,96223.00
2022-12-19T19:51:45.311Z,96219.00
2022-12-19T19:55:56.610Z,96244.00
2022-12-19T20:00:00.755Z,96241.00
2022-12-19T20:04:04.099Z,96253.00
2022-12-19T20:08:07.001Z,96251.00
2022-12-19T20:12:10.139Z,96248.00
2022-12-19T20:16:16.656Z,96244.00
2022-12-19T20:20:19.873Z,96243.00
2022-12-19T20:24:23.459Z,96237.00
2022-12-19T20:28:26.246Z,96247.00
2022-12-19T20:32:31.475Z,96248.00
2022-12-19T20:36:35.008Z,96235.00
2022-12-19T20:40:37.848Z,96236.00
2022-12-19T20:44:40.659Z,96230.00
2022-12-19T20:48:45.906Z,96234.00
2022-12-19T20:52:48.681Z,96216.00
2022-12-19T20:56:51.508Z,96215.00
2022-12-19T21:00:55.885Z,96215.00
2022-12-19T21:05:00.291Z,96216.00
2022-12-19T21:09:03.308Z,96219.00
2022-12-19T21:13:06.108Z,96218.00
2022-12-19T21:17:08.909Z,96222.00
2022-12-19T21:21:16.209Z,96221.00
2022-12-19T21:25:19.046Z,96217.00
2022-12-19T21:29:22.067Z,96218.00
2022-12-19T21:33:25.098Z,96223.00
2022-12-19T21:37:29.342Z,96231.00
2022-12-19T21:41:33.385Z,96233.00
2022-12-19T21:45:36.242Z,96237.00
2022-12-19T21:49:39.066Z,96240.00
2022-12-19T21:53:43.878Z,96241.00
2022-12-19T21:57:46.893Z,96247.00
2022-12-19T22:01:49.937Z,96221.00
2022-12-19T22:05:52.963Z,96215.00
2022-12-19T22:09:57.154Z,96229.00
2022-12-19T22:14:01.187Z,96230.00
2022-12-19T22:18:04.018Z,96218.00
2022-12-19T22:22:07.175Z,96203.00
2022-12-19T22:26:14.253Z,96202.00
2022-12-19T22:30:17.190Z,96199.00
2022-12-19T22:34:21.858Z,96200.00
2022-12-19T22:38:24.667Z,96208.00
2022-12-19T22:42:29.656Z,96204.00
2022-12-19T22:46:34.232Z,96203.00
2022-12-19T22:50:36.998Z,96199.00
2022-12-19T22:54:39.802Z,96192.00
2022-12-19T22:58:45.696Z,96197.00
2022-12-19T23:02:48.747Z,96203.00
2022-12-19T23:06:51.742Z,96197.00
2022-12-19T23:10:54.874Z,96201.00
2022-12-19T23:14:59.344Z,96191.00
2022-12-19T23:19:02.252Z,96193.00
2022-12-19T23:23:05.180Z,96197.00
2022-12-19T23:27:08.046Z,96197.00
2022-12-19T23:31:15.804Z,96184.00
2022-12-19T23:35:18.654Z,96197.00
2022-12-19T23:39:21.508Z,96203.00
2022-12-19T23:43:24.348Z,96196.00
2022-12-19T23:47:28.690Z,96193.00
2022-12-19T23:51:31.593Z,96184.00
2022-12-19T23:55:34.399Z,96183.00
2022-12-19T23:59:37.412Z,96163.00
